Time;durP1;ratioP1;P1;durP2;ratioP2;P2;SDS_P1;SDS_P2;PMS_P1;PMS_P2;Temp;Humidity;BMP_temperature;BMP_pressure;BME280_temperature;BME280_humidity;BME280_pressure;Samples;Min_cycle;Max_cycle;Signal;HPM_P1;HPM_P2
2022/05/23 00:01:54;;;;;;;3.08;0.65;;;16.90;85.60;;;;;;5044123;28;20041;-78
2022/05/23 00:04:21;;;;;;;1.98;0.55;;;16.90;85.80;;;;;;5042715;28;20045;-77
2022/05/23 00:07:14;;;;;;;2.83;0.50;;;16.90;85.90;;;;;;5055919;28;20041;-78
2022/05/23 00:09:44;;;;;;;3.00;0.50;;;16.80;86.10;;;;;;5043300;28;20384;-78
2022/05/23 00:12:14;;;;;;;3.92;0.50;;;16.80;86.20;;;;;;5030396;28;20045;-78
2022/05/23 00:14:46;;;;;;;2.25;0.60;;;16.80;86.40;;;;;;5043543;28;21122;-77
2022/05/23 00:17:13;;;;;;;3.97;0.60;;;16.80;86.50;;;;;;5022987;28;20508;-78
2022/05/23 00:19:44;;;;;;;2.65;0.75;;;16.80;86.70;;;;;;5028497;28;20040;-78
2022/05/23 00:22:16;;;;;;;4.45;0.70;;;16.70;86.90;;;;;;5025516;28;20033;-78
2022/05/23 00:24:54;;;;;;;3.38;0.60;;;16.70;87.10;;;;;;5041786;28;20049;-78
2022/05/23 00:27:42;;;;;;;2.28;0.50;;;16.70;87.20;;;;;;5017908;28;20043;-78
2022/05/23 00:30:26;;;;;;;4.93;0.60;;;16.70;87.40;;;;;;5063180;28;20018;-78
2022/05/23 00:35:56;;;;;;;2.75;0.50;;;16.60;87.60;;;;;;5036146;28;20029;-78
2022/05/23 00:38:26;;;;;;;3.13;0.57;;;16.60;87.80;;;;;;5050433;28;20029;-78
2022/05/23 00:44:07;;;;;;;3.80;0.50;;;16.50;88.10;;;;;;5049982;28;20062;-77
2022/05/23 00:47:00;;;;;;;4.10;1.08;;;16.50;88.30;;;;;;5032404;28;20140;-78
2022/05/23 00:49:36;;;;;;;2.53;0.52;;;16.50;88.60;;;;;;5052814;28;20400;-77
2022/05/23 00:52:11;;;;;;;4.25;0.80;;;16.50;88.90;;;;;;5044809;28;20041;-77
2022/05/23 00:54:49;;;;;;;2.88;0.60;;;16.50;89.10;;;;;;5049502;28;20044;-78
2022/05/23 00:57:27;;;;;;;5.00;0.75;;;16.40;89.30;;;;;;5030741;28;20032;-77
2022/05/23 01:00:30;;;;;;;3.33;0.50;;;16.40;89.50;;;;;;5023288;28;20037;-77
2022/05/23 01:03:34;;;;;;;5.47;0.50;;;16.40;89.70;;;;;;5041027;28;20032;-78
2022/05/23 01:06:05;;;;;;;4.00;0.52;;;16.30;89.90;;;;;;5045483;28;20025;-77
2022/05/23 01:08:36;;;;;;;3.25;0.70;;;16.30;90.20;;;;;;5039704;28;20033;-77
2022/05/23 01:11:07;;;;;;;4.60;0.70;;;16.30;90.10;;;;;;5048684;28;20013;-77
2022/05/23 01:13:58;;;;;;;3.45;0.85;;;16.30;90.20;;;;;;5054761;28;20515;-77
2022/05/23 01:16:27;;;;;;;2.97;0.55;;;16.20;90.30;;;;;;5046910;28;20049;-76
2022/05/23 01:18:58;;;;;;;5.45;2.40;;;16.30;90.40;;;;;;5049099;28;20036;-77
2022/05/23 01:21:48;;;;;;;4.43;1.17;;;16.20;90.40;;;;;;5062382;28;20020;-77
2022/05/23 01:25:07;;;;;;;3.85;0.70;;;16.20;90.60;;;;;;5010599;28;20137;-77
2022/05/23 01:27:37;;;;;;;3.90;0.80;;;16.20;90.70;;;;;;5012105;28;20029;-77
2022/05/23 01:30:05;;;;;;;5.65;1.08;;;16.10;90.70;;;;;;5012023;28;20025;-77
2022/05/23 01:32:38;;;;;;;4.10;0.93;;;16.10;90.90;;;;;;5025243;28;20469;-77
2022/05/23 01:35:07;;;;;;;3.75;0.60;;;16.10;91.00;;;;;;4999099;28;20034;-77
2022/05/23 01:37:37;;;;;;;4.25;0.90;;;16.10;91.10;;;;;;5007584;28;20473;-77
2022/05/23 01:40:15;;;;;;;2.97;0.50;;;16.00;91.20;;;;;;4994377;28;21370;-78
2022/05/23 01:42:55;;;;;;;4.40;0.60;;;16.00;91.40;;;;;;4996941;28;20047;-79
2022/05/23 01:45:36;;;;;;;2.25;0.50;;;16.00;91.50;;;;;;5026507;28;20048;-77
2022/05/23 01:48:27;;;;;;;2.33;0.60;;;15.90;91.60;;;;;;5011355;28;20059;-77
2022/05/23 01:50:54;;;;;;;5.03;0.70;;;15.90;91.90;;;;;;4995028;28;20389;-77
2022/05/23 01:53:26;;;;;;;3.22;0.70;;;15.90;92.10;;;;;;5012509;28;20033;-77
2022/05/23 01:56:04;;;;;;;2.92;0.55;;;15.90;92.20;;;;;;5006085;28;20064;-77
2022/05/23 02:01:31;;;;;;;3.47;0.63;;;15.80;92.30;;;;;;5063567;28;20119;-77
2022/05/23 02:04:02;;;;;;;2.25;0.60;;;15.80;92.40;;;;;;5032207;28;20037;-78
2022/05/23 02:06:53;;;;;;;3.45;0.50;;;15.80;92.50;;;;;;5058132;28;20032;-78
2022/05/23 02:09:27;;;;;;;3.88;0.50;;;15.80;92.60;;;;;;5049410;28;20372;-77
2022/05/23 02:12:18;;;;;;;2.25;0.60;;;15.70;92.70;;;;;;5036866;28;20036;-77
2022/05/23 02:14:47;;;;;;;2.60;0.68;;;15.70;92.90;;;;;;5058283;28;20040;-77
2022/05/23 02:17:34;;;;;;;2.85;0.60;;;15.60;93.00;;;;;;5008868;28;20406;-77
2022/05/23 02:20:24;;;;;;;2.33;0.68;;;15.60;93.10;;;;;;5029327;28;20037;-78
2022/05/23 02:22:52;;;;;;;2.38;0.82;;;15.60;93.50;;;;;;4990119;28;20034;-77
2022/05/23 02:25:29;;;;;;;1.42;0.50;;;15.60;93.40;;;;;;4995297;28;20049;-77
2022/05/23 02:27:56;;;;;;;3.33;0.80;;;15.50;93.40;;;;;;4974467;28;20042;-78
2022/05/23 02:30:23;;;;;;;2.70;0.60;;;15.50;93.60;;;;;;4985241;28;20048;-77
2022/05/23 02:32:53;;;;;;;4.32;0.70;;;15.50;93.70;;;;;;4989260;28;20017;-78
2022/05/23 02:35:20;;;;;;;2.33;0.55;;;15.50;93.90;;;;;;4990418;28;20168;-78
2022/05/23 02:37:47;;;;;;;5.03;0.88;;;15.40;94.00;;;;;;4976950;28;20041;-78
2022/05/23 02:40:17;;;;;;;1.45;0.52;;;15.40;94.10;;;;;;5008672;28;20056;-78
2022/05/23 02:42:43;;;;;;;2.30;0.70;;;15.40;94.20;;;;;;5001415;28;20041;-78
2022/05/23 02:45:10;;;;;;;3.05;0.68;;;15.40;94.40;;;;;;4985979;28;20133;-78
2022/05/23 02:47:43;;;;;;;4.30;1.15;;;15.30;94.50;;;;;;5018670;28;20481;-78
2022/05/23 02:50:11;;;;;;;4.55;1.00;;;15.40;94.70;;;;;;5006908;28;20045;-78
2022/05/23 02:52:43;;;;;;;;;;;15.40;94.90;;;;;;5058073;28;20028;-78
2022/05/23 02:55:19;;;;;;;2.75;0.85;;;15.30;95.00;;;;;;5043704;28;21207;-79
2022/05/23 02:57:54;;;;;;;2.70;0.60;;;15.30;95.10;;;;;;5056980;28;20033;-78
2022/05/23 03:00:25;;;;;;;3.70;0.77;;;15.30;95.20;;;;;;5003595;28;20040;-78
2022/05/23 03:03:03;;;;;;;3.67;1.05;;;15.30;95.40;;;;;;5037539;28;20029;-78
2022/05/23 03:05:51;;;;;;;4.90;0.80;;;15.30;95.50;;;;;;5043564;28;20037;-78
2022/05/23 03:08:24;;;;;;;7.00;0.82;;;15.30;95.70;;;;;;5055764;28;20028;-78
2022/05/23 03:10:52;;;;;;;6.38;1.13;;;15.30;95.90;;;;;;5030135;28;20044;-78
2022/05/23 03:13:21;;;;;;;4.95;0.70;;;15.30;96.00;;;;;;5030434;28;20032;-78
2022/05/23 03:15:48;;;;;;;3.17;0.80;;;15.20;96.10;;;;;;5035722;28;20037;-78
2022/05/23 03:18:16;;;;;;;2.72;0.77;;;15.20;96.30;;;;;;5014984;28;20057;-78
2022/05/23 03:20:44;;;;;;;3.05;0.85;;;15.20;96.50;;;;;;5004812;28;20043;-78
2022/05/23 03:28:45;;;;;;;4.70;0.88;;;15.10;97.00;;;;;;5061101;28;20489;-78
2022/05/23 03:31:12;;;;;;;3.17;1.00;;;15.10;97.20;;;;;;5027697;28;20025;-78
2022/05/23 03:33:38;;;;;;;2.92;0.73;;;15.10;97.30;;;;;;5012240;28;20033;-78
2022/05/23 03:36:06;;;;;;;2.28;0.93;;;15.10;97.40;;;;;;5028095;28;20029;-77
2022/05/23 03:38:33;;;;;;;2.58;0.90;;;15.00;97.50;;;;;;5013678;28;20029;-77
2022/05/23 03:41:05;;;;;;;4.20;0.95;;;15.00;97.70;;;;;;5008923;28;20032;-78
2022/05/23 03:43:32;;;;;;;2.90;0.90;;;15.00;98.00;;;;;;5028398;28;20053;-78
2022/05/23 03:46:10;;;;;;;5.32;1.40;;;15.00;98.20;;;;;;5027937;28;20025;-78
2022/05/23 03:48:37;;;;;;;3.47;1.05;;;15.00;98.60;;;;;;5010528;28;20037;-78
2022/05/23 03:51:05;;;;;;;3.92;1.05;;;15.00;98.60;;;;;;5040803;28;20029;-77
2022/05/23 03:53:32;;;;;;;4.43;1.55;;;15.00;98.70;;;;;;5027576;28;20045;-79
2022/05/23 03:56:04;;;;;;;5.20;1.27;;;15.00;99.10;;;;;;5044527;28;20036;-78
2022/05/23 03:58:35;;;;;;;4.07;1.10;;;15.00;99.10;;;;;;5024505;28;20037;-77
2022/05/23 04:01:23;;;;;;;3.50;1.05;;;15.10;99.20;;;;;;5013411;28;20045;-78
2022/05/23 04:03:55;;;;;;;2.55;1.00;;;15.10;99.40;;;;;;5042823;28;20045;-78
2022/05/23 04:06:22;;;;;;;2.17;0.90;;;15.10;99.40;;;;;;5045652;28;20064;-78
2022/05/23 04:09:02;;;;;;;4.97;1.25;;;15.10;99.40;;;;;;5030904;28;20041;-78
2022/05/23 04:11:29;;;;;;;3.78;1.30;;;15.10;99.60;;;;;;5031857;28;20032;-78
2022/05/23 04:13:57;;;;;;;5.25;1.20;;;15.10;99.80;;;;;;5030778;28;21459;-78
2022/05/23 04:16:27;;;;;;;4.55;1.52;;;15.10;99.80;;;;;;5012925;28;20025;-78
2022/05/23 04:18:54;;;;;;;3.38;1.38;;;15.20;99.90;;;;;;5028994;28;20060;-78
2022/05/23 04:21:22;;;;;;;4.03;1.60;;;15.20;99.90;;;;;;5038585;28;20066;-78
2022/05/23 04:23:49;;;;;;;3.30;1.10;;;15.20;99.90;;;;;;5046136;28;20017;-78
2022/05/23 04:26:15;;;;;;;2.55;1.17;;;15.20;99.90;;;;;;5009153;28;20033;-78
2022/05/23 04:28:42;;;;;;;6.70;1.35;;;15.20;99.90;;;;;;5028218;28;20040;-78
2022/05/23 04:31:10;;;;;;;4.97;1.40;;;15.30;99.90;;;;;;5014344;28;20040;-77
2022/05/23 04:36:58;;;;;;;2.50;0.90;;;15.30;99.90;;;;;;5038808;28;20037;-77
2022/05/23 04:39:37;;;;;;;4.70;1.73;;;15.30;99.90;;;;;;5017325;28;20346;-77
2022/05/23 04:42:04;;;;;;;2.25;1.25;;;15.30;99.90;;;;;;5011939;28;20025;-77
2022/05/23 04:44:32;;;;;;;3.58;1.20;;;15.40;99.90;;;;;;5026080;28;20043;-77
2022/05/23 04:49:50;;;;;;;7.20;1.80;;;15.50;99.90;;;;;;5032285;28;20048;-77
2022/05/23 04:52:34;;;;;;;5.07;1.92;;;15.50;99.90;;;;;;5030562;28;20025;-78
2022/05/23 04:55:02;;;;;;;6.20;1.80;;;15.60;99.90;;;;;;5037573;28;20044;-77
2022/05/23 04:57:28;;;;;;;3.85;2.05;;;15.70;99.90;;;;;;5024148;28;20056;-78
2022/05/23 04:59:55;;;;;;;5.40;2.20;;;15.80;99.90;;;;;;5020835;28;20377;-78
2022/05/23 05:02:26;;;;;;;12.25;6.28;;;15.90;99.90;;;;;;4996555;28;20033;-78
2022/05/23 05:04:57;;;;;;;6.43;2.60;;;15.90;99.90;;;;;;5026948;28;20049;-78
2022/05/23 05:07:25;;;;;;;4.72;2.10;;;16.00;99.90;;;;;;5025790;28;20047;-78
2022/05/23 05:09:54;;;;;;;4.55;1.90;;;16.10;99.90;;;;;;5012209;28;20037;-78
2022/05/23 05:12:20;;;;;;;4.15;2.10;;;16.10;99.90;;;;;;5024326;28;20049;-78
2022/05/23 05:14:47;;;;;;;4.30;1.63;;;16.20;99.90;;;;;;5027356;28;20052;-78
2022/05/23 05:17:15;;;;;;;5.30;1.90;;;16.30;99.90;;;;;;5009590;28;20405;-78
2022/05/23 05:19:41;;;;;;;4.53;1.83;;;16.40;99.90;;;;;;5026227;28;20500;-81
2022/05/23 05:22:27;;;;;;;3.35;1.70;;;16.50;99.90;;;;;;5024381;28;20356;-80
2022/05/23 05:25:08;;;;;;;6.68;2.05;;;16.50;99.90;;;;;;4997107;28;20049;-79
2022/05/23 05:27:37;;;;;;;5.57;1.60;;;16.60;99.90;;;;;;5025290;28;20848;-79
2022/05/23 05:30:08;;;;;;;5.90;1.83;;;16.70;99.90;;;;;;5044874;28;20032;-80
2022/05/23 05:32:46;;;;;;;4.35;1.85;;;16.80;99.90;;;;;;5019463;28;20034;-80
2022/05/23 05:35:22;;;;;;;2.80;1.48;;;16.80;99.90;;;;;;5011630;28;20026;-83
2022/05/23 05:38:16;;;;;;;4.70;1.85;;;16.90;99.90;;;;;;5010846;28;20500;-83
2022/05/23 05:40:50;;;;;;;3.65;2.03;;;17.10;99.90;;;;;;5011746;28;20048;-83
2022/05/23 05:43:29;;;;;;;3.20;1.60;;;17.20;99.90;;;;;;5027848;28;20037;-83
2022/05/23 05:46:13;;;;;;;5.05;2.17;;;17.20;99.90;;;;;;5041863;28;20029;-83
2022/05/23 05:48:50;;;;;;;2.63;1.50;;;17.30;99.90;;;;;;5025013;28;20497;-85
2022/05/23 05:51:22;;;;;;;4.03;2.08;;;17.50;99.90;;;;;;4994680;28;20029;-84
2022/05/23 05:54:25;;;;;;;4.93;2.42;;;17.70;99.90;;;;;;5008396;28;20044;-84
2022/05/23 05:57:07;;;;;;;3.95;1.88;;;17.80;99.90;;;;;;5032402;28;20407;-84
2022/05/23 05:59:35;;;;;;;3.80;1.67;;;18.00;99.90;;;;;;5045247;28;20052;-84
2022/05/23 06:02:02;;;;;;;5.22;2.40;;;18.10;99.90;;;;;;5012930;28;20040;-80
2022/05/23 06:04:31;;;;;;;7.35;2.47;;;18.30;99.90;;;;;;5024926;28;20068;-80
2022/05/23 06:13:10;;;;;;;3.78;2.00;;;18.80;99.50;;;;;;5028968;28;20148;-80
2022/05/23 06:15:41;;;;;;;4.35;1.63;;;18.90;99.20;;;;;;5027587;28;20047;-80
2022/05/23 06:18:09;;;;;;;3.88;1.40;;;19.00;99.00;;;;;;5026151;28;20049;-79
2022/05/23 06:20:38;;;;;;;3.65;1.75;;;19.00;98.90;;;;;;5048772;28;20013;-80
2022/05/23 06:23:05;;;;;;;6.22;2.20;;;19.00;98.90;;;;;;5050240;28;20036;-79
2022/05/23 06:25:37;;;;;;;5.25;2.47;;;18.90;98.90;;;;;;5017839;28;20035;-81
2022/05/23 06:28:09;;;;;;;3.47;2.13;;;18.90;98.90;;;;;;5031531;28;20056;-79
2022/05/23 06:30:36;;;;;;;6.05;2.17;;;19.00;99.00;;;;;;5046557;28;20400;-80
2022/05/23 06:33:09;;;;;;;6.45;2.95;;;19.00;98.90;;;;;;5019741;28;20021;-80
2022/05/23 06:35:44;;;;;;;3.88;2.00;;;19.00;98.90;;;;;;5047838;28;20036;-80
2022/05/23 06:38:15;;;;;;;4.57;2.00;;;19.00;98.90;;;;;;5011552;28;20399;-80
2022/05/23 06:40:48;;;;;;;4.90;2.65;;;19.10;98.90;;;;;;5030749;28;20036;-80
2022/05/23 06:43:33;;;;;;;6.18;2.88;;;19.10;98.80;;;;;;5064845;28;20028;-81
2022/05/23 06:46:22;;;;;;;6.05;2.72;;;19.20;98.80;;;;;;5029448;28;20395;-80
2022/05/23 06:49:07;;;;;;;3.47;2.53;;;19.30;98.60;;;;;;5051334;28;20036;-83
2022/05/23 06:51:52;;;;;;;5.85;2.33;;;19.30;98.60;;;;;;5057586;28;20043;-83
2022/05/23 06:54:24;;;;;;;6.70;2.78;;;19.50;98.50;;;;;;5054440;28;20040;-81
2022/05/23 06:57:04;;;;;;;5.88;3.00;;;19.50;98.30;;;;;;5051897;28;20036;-80
2022/05/23 06:59:30;;;;;;;4.00;2.50;;;19.60;98.30;;;;;;5017694;28;20484;-80
2022/05/23 07:01:58;;;;;;;5.38;2.78;;;19.70;98.30;;;;;;5014085;28;20029;-80
2022/05/23 07:13:43;;;;;;;5.72;2.55;;;20.10;97.90;;;;;;5032297;28;20032;-79
2022/05/23 07:16:11;;;;;;;6.00;3.25;;;20.20;97.70;;;;;;5043828;28;20044;-79
2022/05/23 07:18:42;;;;;;;5.10;2.37;;;20.50;97.60;;;;;;5032195;28;20057;-78
2022/05/23 07:21:19;;;;;;;8.77;3.15;;;20.70;97.30;;;;;;5030953;28;20488;-79
2022/05/23 07:24:08;;;;;;;5.32;3.85;;;20.90;96.90;;;;;;5019054;28;20024;-79
2022/05/23 07:26:43;;;;;;;8.95;6.03;;;21.10;96.70;;;;;;5012253;28;20040;-79
2022/05/23 07:29:11;;;;;;;4.72;2.80;;;21.30;96.40;;;;;;5030954;28;20036;-80
2022/05/23 07:31:38;;;;;;;7.82;3.63;;;21.40;95.90;;;;;;5029070;28;20041;-80
2022/05/23 07:34:04;;;;;;;5.13;1.80;;;21.60;95.80;;;;;;4997629;28;20033;-79
2022/05/23 07:36:31;;;;;;;4.70;2.28;;;21.70;95.70;;;;;;5011690;28;20476;-84
2022/05/23 07:39:03;;;;;;;;;;;21.90;95.40;;;;;;5045804;28;20052;-80
2022/05/23 07:41:44;;;;;;;4.45;2.25;;;22.10;95.20;;;;;;5028624;28;19913;-82
2022/05/23 07:44:13;;;;;;;5.82;2.50;;;22.40;94.60;;;;;;5048996;28;20025;-82
2022/05/23 07:46:44;;;;;;;4.28;1.95;;;22.60;94.10;;;;;;5046317;28;20033;-82
2022/05/23 07:49:14;;;;;;;4.88;2.25;;;22.60;93.90;;;;;;5032436;28;20498;-84
2022/05/23 07:51:53;;;;;;;5.30;2.60;;;22.70;93.90;;;;;;5015855;28;20503;-82
2022/05/23 08:03:18;;;;;;;4.78;2.78;;;22.90;93.30;;;;;;5055173;28;20452;-84
2022/05/23 08:05:52;;;;;;;6.63;2.83;;;22.90;92.90;;;;;;5063335;28;20039;-83
2022/05/23 08:08:19;;;;;;;5.43;1.98;;;22.90;92.90;;;;;;5013165;28;21264;-83
2022/05/23 08:10:47;;;;;;;3.95;1.92;;;22.90;92.90;;;;;;5013351;28;20040;-82
2022/05/23 08:13:14;;;;;;;3.70;1.38;;;23.00;92.60;;;;;;5048486;28;20040;-82
2022/05/23 08:15:43;;;;;;;6.50;1.70;;;23.00;92.30;;;;;;5050278;28;20055;-85
2022/05/23 08:18:17;;;;;;;;;;;23.00;91.90;;;;;;5044704;28;20045;-83
2022/05/23 08:20:51;;;;;;;6.25;3.58;;;23.10;91.80;;;;;;5044046;28;20383;-82
2022/05/23 08:23:29;;;;;;;8.80;3.00;;;23.30;91.90;;;;;;5043782;28;20045;-82
2022/05/23 08:26:04;;;;;;;3.97;1.55;;;23.50;91.70;;;;;;5057269;28;22785;-82
2022/05/23 08:28:38;;;;;;;6.43;1.63;;;23.70;91.30;;;;;;5041247;28;20029;-82
2022/05/23 08:31:06;;;;;;;5.05;1.77;;;24.00;90.80;;;;;;5037553;28;20025;-83
2022/05/23 08:33:43;;;;;;;5.55;1.50;;;24.30;90.00;;;;;;5028523;28;20048;-84
2022/05/23 08:36:24;;;;;;;3.55;1.23;;;24.60;89.00;;;;;;5029045;28;20041;-84
2022/05/23 08:38:53;;;;;;;3.53;1.05;;;24.80;88.40;;;;;;5031560;28;20041;-84
2022/05/23 08:41:50;;;;;;;9.88;5.22;;;25.00;87.30;;;;;;5036625;28;20025;-83
2022/05/23 08:45:00;;;;;;;8.70;2.53;;;25.30;85.80;;;;;;5056612;28;20025;-83
2022/05/23 08:47:55;;;;;;;4.28;1.48;;;25.70;84.00;;;;;;5042598;28;20048;-83
2022/05/23 08:50:47;;;;;;;5.95;2.08;;;25.90;82.40;;;;;;5044976;28;20024;-83
2022/05/23 08:53:27;;;;;;;5.05;1.65;;;26.10;80.40;;;;;;5064471;28;20060;-85
2022/05/23 08:56:45;;;;;;;4.70;2.00;;;26.20;80.40;;;;;;5031928;28;20032;-84
2022/05/23 08:59:31;;;;;;;3.30;1.88;;;26.10;79.70;;;;;;5044843;28;20049;-84
2022/05/23 09:02:18;;;;;;;7.80;2.13;;;25.90;80.10;;;;;;5045994;28;20032;-84
2022/05/23 09:05:15;;;;;;;3.88;1.40;;;25.90;80.50;;;;;;5046956;28;20040;-83
2022/05/23 09:07:54;;;;;;;4.47;1.85;;;25.70;80.00;;;;;;5044267;28;20029;-84
2022/05/23 09:10:54;;;;;;;4.25;1.90;;;25.60;79.70;;;;;;5046608;28;20033;-84
2022/05/23 09:13:31;;;;;;;3.50;1.67;;;25.60;79.70;;;;;;5043475;28;20037;-84
2022/05/23 09:16:04;;;;;;;6.18;2.65;;;25.50;79.90;;;;;;5033977;28;20037;-84
2022/05/23 09:18:44;;;;;;;;;;;25.40;79.80;;;;;;5057430;28;20049;-83
2022/05/23 09:21:17;;;;;;;4.68;1.35;;;25.40;80.20;;;;;;5047261;28;19911;-82
2022/05/23 09:23:50;;;;;;;3.28;1.40;;;25.40;80.20;;;;;;5065871;28;20016;-83
2022/05/23 09:26:34;;;;;;;5.90;2.17;;;25.50;80.20;;;;;;5066508;28;20043;-83
2022/05/23 09:29:08;;;;;;;3.78;1.92;;;25.50;80.30;;;;;;5071203;28;20020;-83
2022/05/23 09:31:46;;;;;;;4.95;2.90;;;25.50;80.30;;;;;;5048487;28;20024;-83
2022/05/23 09:34:32;;;;;;;5.88;1.50;;;25.50;79.90;;;;;;5066132;28;20122;-83
2022/05/23 09:37:00;;;;;;;3.88;1.63;;;25.50;80.20;;;;;;5044331;28;20037;-85
2022/05/23 09:39:30;;;;;;;2.80;1.70;;;25.50;79.80;;;;;;5065768;28;20044;-83
2022/05/23 09:47:45;;;;;;;5.05;1.58;;;26.00;79.40;;;;;;5025660;28;20028;-85
2022/05/23 09:50:27;;;;;;;3.22;1.17;;;26.30;78.50;;;;;;5046073;28;20041;-85
2022/05/23 09:52:57;;;;;;;;;;;26.50;77.90;;;;;;5047648;28;20024;-85
2022/05/23 09:55:41;;;;;;;5.30;2.08;;;26.70;77.50;;;;;;5005636;28;19909;-82
2022/05/23 09:58:11;;;;;;;4.32;1.40;;;26.80;77.40;;;;;;5016255;28;20039;-82
2022/05/23 10:00:55;;;;;;;6.03;2.17;;;26.80;77.00;;;;;;5045369;28;20029;-82
2022/05/23 10:03:24;;;;;;;3.80;1.92;;;26.70;76.70;;;;;;5044564;28;20040;-82
2022/05/23 10:06:03;;;;;;;9.02;2.20;;;26.50;76.60;;;;;;5035013;28;20049;-82
2022/05/23 10:08:33;;;;;;;3.67;1.92;;;26.20;76.40;;;;;;5061143;28;20090;-81
2022/05/23 10:11:32;;;;;;;3.72;1.52;;;25.90;76.90;;;;;;5017757;28;20041;-79
2022/05/23 10:14:05;;;;;;;6.82;2.85;;;25.80;77.30;;;;;;5052669;28;20036;-81
2022/05/23 10:16:54;;;;;;;5.40;2.40;;;25.60;77.70;;;;;;5045260;28;20068;-80
2022/05/23 10:19:34;;;;;;;4.00;1.90;;;25.60;77.80;;;;;;5047301;28;20041;-82
2022/05/23 10:22:23;;;;;;;4.43;1.77;;;25.50;78.10;;;;;;5062853;28;20035;-81
2022/05/23 10:25:06;;;;;;;7.38;1.60;;;25.40;78.20;;;;;;5032179;28;20388;-80
2022/05/23 10:27:49;;;;;;;4.20;1.70;;;25.30;78.60;;;;;;5040318;28;20023;-81
2022/05/23 10:30:19;;;;;;;5.88;1.17;;;25.40;78.60;;;;;;5047957;28;20028;-81
2022/05/23 10:32:50;;;;;;;3.35;1.63;;;25.50;78.20;;;;;;5047132;28;20368;-80
2022/05/23 10:35:43;;;;;;;3.30;1.30;;;25.50;77.80;;;;;;5033992;28;20033;-80
2022/05/23 10:44:01;;;;;;;3.95;1.55;;;25.60;77.90;;;;;;5048091;28;20388;-81
2022/05/23 10:46:37;;;;;;;6.72;2.15;;;25.80;77.40;;;;;;5061157;28;20028;-81
2022/05/23 10:49:35;;;;;;;5.68;1.60;;;25.90;77.10;;;;;;5049769;28;20024;-81
2022/05/23 10:52:18;;;;;;;4.95;1.35;;;26.20;77.30;;;;;;5054942;28;20388;-80
2022/05/23 10:55:23;;;;;;;5.28;2.35;;;26.30;77.00;;;;;;5082127;28;20036;-81
2022/05/23 10:58:02;;;;;;;4.78;1.55;;;26.20;76.10;;;;;;5045029;28;20041;-80
2022/05/23 11:00:44;;;;;;;3.67;1.35;;;26.10;76.90;;;;;;5037337;28;20044;-80
2022/05/23 11:03:24;;;;;;;5.00;2.00;;;26.00;76.70;;;;;;5034862;28;20032;-80
2022/05/23 11:06:25;;;;;;;4.20;1.90;;;25.90;76.70;;;;;;5075875;28;20035;-80
2022/05/23 11:09:00;;;;;;;3.30;2.00;;;25.80;76.80;;;;;;5028326;28;20079;-80
2022/05/23 11:11:40;;;;;;;6.35;1.88;;;25.80;76.90;;;;;;5070955;28;20048;-79
2022/05/23 11:14:13;;;;;;;4.82;1.80;;;25.70;77.00;;;;;;5073197;28;20047;-79
2022/05/23 11:17:04;;;;;;;5.18;1.77;;;25.60;77.20;;;;;;5068868;28;20032;-79
2022/05/23 11:19:53;;;;;;;5.10;2.88;;;25.50;77.60;;;;;;5046442;28;20044;-79
2022/05/23 11:22:32;;;;;;;7.68;5.32;;;25.40;78.10;;;;;;5020655;28;20044;-80
2022/05/23 11:25:20;;;;;;;5.43;2.53;;;25.60;78.30;;;;;;5057716;28;20027;-80
2022/05/23 11:33:42;;;;;;;6.17;2.80;;;26.70;77.30;;;;;;5066917;28;20579;-79
2022/05/23 11:36:10;;;;;;;5.30;2.80;;;27.20;76.30;;;;;;5044672;28;20286;-80
2022/05/23 11:39:01;;;;;;;3.92;2.13;;;27.60;75.60;;;;;;5037780;28;20047;-81
2022/05/23 11:41:38;;;;;;;4.03;2.40;;;28.40;75.10;;;;;;5037316;28;20384;-81
2022/05/23 11:44:45;;;;;;;5.85;2.60;;;29.40;73.70;;;;;;5062785;28;20020;-82
2022/05/23 11:47:38;;;;;;;8.45;2.45;;;30.10;71.50;;;;;;5062085;28;20422;-85
2022/05/23 11:50:18;;;;;;;6.45;1.67;;;30.50;70.50;;;;;;5045367;28;20043;-82
2022/05/23 11:53:02;;;;;;;6.25;1.40;;;30.80;68.90;;;;;;5067425;28;20056;-82
2022/05/23 11:56:09;;;;;;;2.80;1.38;;;31.10;68.50;;;;;;5035380;28;20051;-83
2022/05/23 11:58:48;;;;;;;3.42;1.10;;;31.90;66.50;;;;;;5067785;28;20037;-82
2022/05/23 12:01:40;;;;;;;4.95;0.85;;;32.40;63.40;;;;;;5028366;28;20024;-81
2022/05/23 12:04:16;;;;;;;2.05;0.60;;;32.60;61.80;;;;;;5033339;28;20029;-83
2022/05/23 12:06:50;;;;;;;3.47;0.80;;;32.40;60.80;;;;;;5043991;28;21619;-82
2022/05/23 12:09:19;;;;;;;1.92;0.70;;;32.20;60.00;;;;;;5049103;28;20036;-82
2022/05/23 12:12:34;;;;;;;2.95;0.68;;;32.20;60.20;;;;;;5043293;28;20037;-83
2022/05/23 12:15:01;;;;;;;5.40;1.85;;;32.40;59.90;;;;;;5018205;28;20045;-83
2022/05/23 12:17:31;;;;;;;4.72;0.82;;;33.00;59.00;;;;;;5040940;28;20040;-83
2022/05/23 12:20:20;;;;;;;3.92;1.48;;;33.50;57.80;;;;;;5057994;28;20980;-83
2022/05/23 12:23:30;;;;;;;2.80;0.80;;;33.90;56.10;;;;;;5050787;28;20033;-84
2022/05/23 12:26:07;;;;;;;2.13;0.90;;;33.70;56.20;;;;;;4998482;28;20054;-85
2022/05/23 12:28:56;;;;;;;3.20;0.70;;;33.30;55.70;;;;;;5067305;28;20044;-85
2022/05/23 12:31:38;;;;;;;4.00;0.80;;;32.50;55.90;;;;;;5045841;28;20048;-85
2022/05/23 12:34:26;;;;;;;2.92;0.70;;;31.80;57.00;;;;;;5052579;28;20039;-83
2022/05/23 12:37:04;;;;;;;3.35;1.00;;;31.30;57.90;;;;;;5064989;28;20052;-86
2022/05/23 12:40:03;;;;;;;4.07;0.70;;;30.80;58.40;;;;;;5048002;28;20048;-87
2022/05/23 12:43:01;;;;;;;3.17;0.70;;;30.40;59.60;;;;;;4994970;28;20153;-83
2022/05/23 12:45:36;;;;;;;4.07;0.90;;;30.20;60.50;;;;;;5050194;28;20477;-86
2022/05/23 12:48:25;;;;;;;5.53;1.08;;;30.20;60.50;;;;;;5062561;28;20862;-85
2022/05/23 12:51:19;;;;;;;2.88;0.80;;;30.00;60.40;;;;;;5037578;28;20047;-86
2022/05/23 12:54:13;;;;;;;2.40;0.70;;;29.80;60.60;;;;;;5052359;28;20036;-86
2022/05/23 12:57:01;;;;;;;3.53;0.90;;;29.50;61.00;;;;;;5016447;28;20042;-87
2022/05/23 12:59:43;;;;;;;4.35;1.00;;;29.20;61.60;;;;;;5051155;28;20091;-83
2022/05/23 13:02:40;;;;;;;5.22;0.80;;;29.00;61.80;;;;;;5034605;28;20043;-83
2022/05/23 13:05:17;;;;;;;4.95;0.85;;;28.80;62.40;;;;;;5034098;28;20032;-81
2022/05/23 13:07:58;;;;;;;6.85;5.68;;;28.60;63.50;;;;;;5059752;28;20036;-82
2022/05/23 13:10:32;;;;;;;3.83;2.05;;;28.40;63.50;;;;;;5066141;28;20044;-81
2022/05/23 13:13:23;;;;;;;5.18;1.38;;;28.20;63.70;;;;;;5065847;28;21018;-81
2022/05/23 13:15:50;;;;;;;4.35;0.90;;;28.10;64.10;;;;;;5031405;28;20052;-82
2022/05/23 13:23:52;;;;;;;6.43;1.25;;;27.80;65.60;;;;;;5064627;28;20032;-81
2022/05/23 13:26:21;;;;;;;3.83;1.10;;;27.60;65.10;;;;;;5032822;28;20028;-82
2022/05/23 13:28:50;;;;;;;4.05;1.10;;;27.40;65.50;;;;;;5043396;28;20051;-82
2022/05/23 13:31:30;;;;;;;3.08;1.20;;;27.20;66.00;;;;;;5031101;28;20371;-82
2022/05/23 13:33:57;;;;;;;3.67;1.15;;;26.90;67.00;;;;;;5014820;28;21225;-82
2022/05/23 13:36:41;;;;;;;2.30;1.02;;;26.70;67.50;;;;;;5048040;28;20553;-81
2022/05/23 13:39:14;;;;;;;3.67;1.38;;;26.60;68.40;;;;;;5033229;28;20531;-83
2022/05/23 13:41:42;;;;;;;3.42;0.80;;;26.40;68.90;;;;;;5030862;28;20032;-83
2022/05/23 13:44:26;;;;;;;4.63;0.88;;;26.30;69.30;;;;;;5017547;28;20027;-82
2022/05/23 13:47:08;;;;;;;2.95;0.60;;;26.20;69.60;;;;;;5043982;28;20947;-83
2022/05/23 13:49:54;;;;;;;3.33;0.70;;;26.10;69.20;;;;;;5031438;28;20368;-82
2022/05/23 13:52:29;;;;;;;2.97;0.75;;;26.00;69.10;;;;;;5048800;28;20063;-80
2022/05/23 13:55:13;;;;;;;4.93;0.80;;;25.80;69.30;;;;;;5032117;28;20040;-82
2022/05/23 13:57:55;;;;;;;4.47;0.68;;;25.70;70.10;;;;;;5064091;28;20032;-80
2022/05/23 14:00:34;;;;;;;2.97;0.93;;;25.70;70.90;;;;;;5046103;28;20035;-81
2022/05/23 14:03:20;;;;;;;5.57;0.80;;;25.70;71.50;;;;;;5048354;28;20028;-82
2022/05/23 14:05:50;;;;;;;2.03;0.63;;;25.60;71.60;;;;;;5048681;28;20040;-82
2022/05/23 14:08:33;;;;;;;2.53;0.60;;;25.60;71.70;;;;;;5060178;28;20027;-82
2022/05/23 14:11:03;;;;;;;2.53;0.80;;;25.60;72.00;;;;;;5063126;28;20484;-81
2022/05/23 14:13:31;;;;;;;4.60;1.02;;;25.50;73.40;;;;;;5066458;28;20019;-79
2022/05/23 14:15:59;;;;;;;2.60;0.77;;;25.50;75.10;;;;;;5034163;28;20025;-80
2022/05/23 14:18:32;;;;;;;5.47;1.13;;;25.40;76.90;;;;;;5030102;28;20040;-79
2022/05/23 14:20:59;;;;;;;4.18;0.98;;;25.30;78.80;;;;;;5065603;28;20036;-79
2022/05/23 14:23:33;;;;;;;3.08;1.83;;;25.20;79.90;;;;;;5049362;28;20500;-79
2022/05/23 14:25:59;;;;;;;5.13;1.92;;;25.10;81.00;;;;;;5057367;28;20035;-79
2022/05/23 14:28:28;;;;;;;3.75;1.27;;;25.00;83.20;;;;;;5044873;28;20036;-79
2022/05/23 14:31:03;;;;;;;4.88;1.27;;;25.10;84.30;;;;;;5045778;28;20051;-79
2022/05/23 14:33:35;;;;;;;3.13;1.15;;;25.20;85.10;;;;;;5042836;28;20036;-80
2022/05/23 14:36:17;;;;;;;3.45;1.30;;;25.40;85.60;;;;;;5064811;28;20035;-80
2022/05/23 14:39:16;;;;;;;6.05;1.20;;;25.50;86.10;;;;;;5022895;28;20036;-81
2022/05/23 14:41:43;;;;;;;3.53;1.20;;;25.60;86.60;;;;;;5046272;28;20033;-81
2022/05/23 14:44:19;;;;;;;4.93;1.23;;;25.60;86.90;;;;;;5028145;28;20041;-80
2022/05/23 14:47:14;;;;;;;3.83;1.27;;;25.60;87.90;;;;;;5037760;28;20044;-81